Terminal Aerodrome Forecast
Issued by NWS

Home | Current Version | Previous Version | Text Only | Print | Product List | Glossary On
Versions: 1 2 3 4 5 6 7 8 9 10 11 12 13
000
FTUS44 KTSA 071120
TAFMLC
TAF
KMLC 071120Z 0712/0812 19007KT 6SM -SHRA OVC050
     FM071400 03005KT P6SM VCTS OVC025CB
      TEMPO 0715/0719 3SM -TSRA BKN015CB
     FM071900 18007KT P6SM VCTS BKN025CB
     FM080200 18007KT 5SM -TSRA BKN025CB=

USA.gov is the U.S. government's official web portal to all federal, state and local government web resources and services.